Time;durP1;ratioP1;P1;durP2;ratioP2;P2;SDS_P1;SDS_P2;PMS_P1;PMS_P2;Temp;Humidity;BMP_temperature;BMP_pressure;BME280_temperature;BME280_humidity;BME280_pressure;Samples;Min_cycle;Max_cycle;Signal;HPM_P1;HPM_P2
2023/02/07 00:00:04;;;;;;;9.95;3.38;;;10.50;44.60;;;;;;7542299;23;20018;-65
2023/02/07 00:03:13;;;;;;;10.15;4.35;;;10.50;44.50;;;;;;7544312;23;20025;-66
2023/02/07 00:06:35;;;;;;;6.65;3.35;;;10.40;44.40;;;;;;7567904;23;20007;-66
2023/02/07 00:09:36;;;;;;;7.00;3.70;;;10.40;44.60;;;;;;7541947;23;20379;-67
2023/02/07 00:12:38;;;;;;;7.47;3.20;;;10.30;44.60;;;;;;7567776;23;20010;-65
2023/02/07 00:15:38;;;;;;;9.10;4.15;;;10.30;44.50;;;;;;7542477;23;20427;-67
2023/02/07 00:18:39;;;;;;;9.57;3.72;;;10.40;44.60;;;;;;7566981;23;20066;-66
2023/02/07 00:21:40;;;;;;;6.07;3.60;;;10.30;44.50;;;;;;7567481;23;20058;-65
2023/02/07 00:24:42;;;;;;;7.90;3.90;;;10.20;44.40;;;;;;7567397;23;20095;-66
2023/02/07 00:27:43;;;;;;;7.95;3.75;;;10.20;44.40;;;;;;7541509;23;20328;-66
2023/02/07 00:30:46;;;;;;;9.43;4.35;;;10.20;44.30;;;;;;7567735;23;20002;-67
2023/02/07 00:33:48;;;;;;;8.40;3.92;;;10.20;44.10;;;;;;7572394;23;20011;-65
2023/02/07 00:36:49;;;;;;;5.35;3.25;;;10.30;44.20;;;;;;7548268;23;20018;-66
2023/02/07 00:39:50;;;;;;;7.63;3.58;;;10.30;44.20;;;;;;7557835;23;20010;-67
2023/02/07 00:42:51;;;;;;;6.13;3.30;;;10.30;44.20;;;;;;7566249;23;20034;-67
2023/02/07 00:45:52;;;;;;;5.10;3.50;;;10.30;44.10;;;;;;7565550;23;20026;-66
2023/02/07 00:48:54;;;;;;;6.72;3.58;;;10.30;44.10;;;;;;7566857;23;20639;-66
2023/02/07 00:51:55;;;;;;;9.80;3.95;;;10.20;44.00;;;;;;7567789;23;20038;-66
2023/02/07 00:54:56;;;;;;;7.13;3.22;;;10.20;44.10;;;;;;7566380;23;20134;-67
2023/02/07 00:57:57;;;;;;;8.43;4.18;;;10.20;44.30;;;;;;7541263;23;20007;-65
2023/02/07 01:00:58;;;;;;;7.38;4.28;;;10.20;44.40;;;;;;7565444;23;20332;-67
2023/02/07 01:03:59;;;;;;;9.85;3.78;;;10.20;44.40;;;;;;7567067;23;20357;-66
2023/02/07 01:07:00;;;;;;;7.60;3.65;;;10.20;44.30;;;;;;7566429;23;20010;-66
2023/02/07 01:10:03;;;;;;;8.48;3.75;;;10.10;44.30;;;;;;7567092;23;20491;-65
2023/02/07 01:13:04;;;;;;;5.80;3.28;;;10.10;44.30;;;;;;7566730;23;20458;-66
2023/02/07 01:16:05;;;;;;;10.02;3.45;;;10.10;44.10;;;;;;7565173;23;20006;-65
2023/02/07 01:19:10;;;;;;;7.07;3.53;;;10.20;44.20;;;;;;7564675;23;20014;-66
2023/02/07 01:22:10;;;;;;;6.97;3.70;;;10.20;44.10;;;;;;7565379;23;20081;-65
2023/02/07 01:25:12;;;;;;;8.20;3.85;;;10.20;44.10;;;;;;7565183;23;20073;-66
2023/02/07 01:28:14;;;;;;;8.85;3.85;;;10.20;44.00;;;;;;7564704;23;20014;-66
2023/02/07 01:31:15;;;;;;;10.27;4.63;;;10.20;44.00;;;;;;7566750;23;20414;-66
2023/02/07 01:34:16;;;;;;;8.07;3.10;;;10.10;44.00;;;;;;7566610;23;20021;-65
2023/02/07 01:37:17;;;;;;;7.57;3.88;;;10.00;44.70;;;;;;7564687;23;20015;-66
2023/02/07 01:40:18;;;;;;;6.40;3.72;;;10.00;44.10;;;;;;7565165;23;20040;-66
2023/02/07 01:43:23;;;;;;;9.70;4.28;;;10.00;44.10;;;;;;7565125;23;20015;-67
2023/02/07 01:46:26;;;;;;;9.07;4.05;;;10.00;44.40;;;;;;7565093;23;20013;-67
2023/02/07 01:49:33;;;;;;;10.55;4.00;;;10.00;44.10;;;;;;7565308;23;20021;-66
2023/02/07 01:52:38;;;;;;;7.30;3.63;;;9.90;44.00;;;;;;7567092;23;20277;-65
2023/02/07 01:55:41;;;;;;;7.30;3.42;;;9.90;44.00;;;;;;7565104;23;20006;-66
2023/02/07 01:58:44;;;;;;;8.50;3.90;;;9.90;44.00;;;;;;7564950;23;20418;-67
2023/02/07 02:01:45;;;;;;;5.43;3.33;;;9.90;44.10;;;;;;7564979;23;20046;-66
2023/02/07 02:04:48;;;;;;;6.65;3.42;;;9.90;44.00;;;;;;7565127;23;20013;-66
2023/02/07 02:07:49;;;;;;;7.75;3.33;;;9.90;44.00;;;;;;7564526;23;20007;-67
2023/02/07 02:11:26;;;;;;;7.75;3.55;;;9.90;44.00;;;;;;7565191;23;20103;-66
2023/02/07 02:14:46;;;;;;;7.38;3.72;;;9.80;43.90;;;;;;7565250;23;20006;-67
2023/02/07 02:17:56;;;;;;;7.85;3.80;;;9.80;44.00;;;;;;7540423;23;20058;-67
2023/02/07 02:21:22;;;;;;;7.60;2.95;;;9.80;44.20;;;;;;7564834;23;20013;-66
2023/02/07 02:24:35;;;;;;;8.23;3.67;;;9.70;44.20;;;;;;7565378;23;20007;-66
2023/02/07 02:28:12;;;;;;;6.40;3.65;;;9.80;44.40;;;;;;7568407;23;20014;-66
2023/02/07 02:31:32;;;;;;;7.03;3.35;;;9.80;44.40;;;;;;7567215;23;20034;-66
2023/02/07 02:34:35;;;;;;;15.68;4.22;;;9.80;44.60;;;;;;7568753;23;20014;-67
2023/02/07 02:37:39;;;;;;;9.00;4.53;;;9.80;44.90;;;;;;7566700;23;20029;-66
2023/02/07 02:40:46;;;;;;;9.23;4.35;;;9.80;45.10;;;;;;7543189;23;20010;-65
2023/02/07 02:44:10;;;;;;;9.60;4.10;;;9.80;45.40;;;;;;7543093;23;20014;-67
2023/02/07 02:47:11;;;;;;;8.85;4.80;;;9.80;45.80;;;;;;7568457;23;20007;-66
2023/02/07 02:50:17;;;;;;;8.18;4.00;;;9.80;46.30;;;;;;7519413;23;20357;-66
2023/02/07 02:53:20;;;;;;;10.10;4.45;;;9.80;46.70;;;;;;7543241;23;20014;-67
2023/02/07 02:56:42;;;;;;;11.50;4.40;;;9.70;47.00;;;;;;7543277;23;20114;-65
2023/02/07 02:59:49;;;;;;;9.75;4.55;;;9.70;47.10;;;;;;7567972;23;20003;-66
2023/02/07 03:03:11;;;;;;;7.22;4.05;;;9.70;47.30;;;;;;7542875;23;20085;-66
2023/02/07 03:06:42;;;;;;;8.05;3.50;;;9.70;47.60;;;;;;7542720;23;20063;-66
2023/02/07 03:10:01;;;;;;;12.63;4.45;;;9.70;48.00;;;;;;7492649;23;20354;-66
2023/02/07 03:13:13;;;;;;;8.85;3.60;;;9.60;48.20;;;;;;7469948;23;20022;-66
2023/02/07 03:16:26;;;;;;;10.27;4.22;;;9.60;48.40;;;;;;7493708;23;20018;-66
2023/02/07 03:19:37;;;;;;;11.15;4.10;;;9.50;48.60;;;;;;7494106;23;20059;-66
2023/02/07 03:22:40;;;;;;;9.07;4.05;;;9.40;49.00;;;;;;7470442;23;20011;-65
2023/02/07 03:25:43;;;;;;;9.88;4.10;;;9.30;49.30;;;;;;7469808;23;20420;-65
2023/02/07 03:28:46;;;;;;;11.60;4.22;;;9.20;49.60;;;;;;7469614;23;20121;-67
2023/02/07 03:31:51;;;;;;;8.15;4.28;;;9.10;49.90;;;;;;7493968;23;20011;-65
2023/02/07 03:35:02;;;;;;;10.68;4.50;;;9.00;50.30;;;;;;7498269;23;20472;-65
2023/02/07 03:38:04;;;;;;;15.40;5.05;;;8.90;50.90;;;;;;7505281;23;20023;-66
2023/02/07 03:41:14;;;;;;;7.07;4.00;;;8.80;51.30;;;;;;7529265;23;20011;-66
2023/02/07 03:44:18;;;;;;;6.55;3.70;;;8.70;51.40;;;;;;7504798;23;20421;-65
2023/02/07 03:47:19;;;;;;;9.95;4.88;;;8.60;51.60;;;;;;7556576;23;20459;-67
2023/02/07 03:50:20;;;;;;;6.93;3.45;;;8.60;52.20;;;;;;7567862;23;20328;-66
2023/02/07 03:53:21;;;;;;;9.30;4.18;;;8.50;52.90;;;;;;7567992;23;20006;-66
2023/02/07 03:56:22;;;;;;;13.90;4.30;;;8.40;53.20;;;;;;7567507;23;20340;-66
2023/02/07 03:59:23;;;;;;;7.28;3.97;;;8.40;53.50;;;;;;7567205;23;20038;-64
2023/02/07 04:02:25;;;;;;;9.98;4.88;;;8.30;53.90;;;;;;7567611;23;20010;-67
2023/02/07 04:05:26;;;;;;;7.15;3.85;;;8.30;54.20;;;;;;7567755;23;20038;-66
2023/02/07 04:08:27;;;;;;;10.38;5.35;;;8.20;54.50;;;;;;7565593;23;20085;-65
2023/02/07 04:11:28;;;;;;;10.48;4.18;;;8.10;54.80;;;;;;7566038;23;20070;-65
2023/02/07 04:14:29;;;;;;;11.88;5.00;;;8.10;55.10;;;;;;7567590;23;20010;-67
2023/02/07 04:17:30;;;;;;;12.40;4.72;;;8.00;55.40;;;;;;7567125;23;20442;-67
2023/02/07 04:20:31;;;;;;;13.10;5.47;;;7.90;55.70;;;;;;7567320;23;20440;-65
2023/02/07 04:23:32;;;;;;;11.40;4.53;;;7.80;55.80;;;;;;7565947;23;20082;-66
2023/02/07 04:26:34;;;;;;;12.13;4.47;;;7.80;55.90;;;;;;7567108;23;20083;-66
2023/02/07 04:29:35;;;;;;;9.73;4.72;;;7.80;56.00;;;;;;7567139;23;20110;-66
2023/02/07 04:32:36;;;;;;;12.25;4.82;;;7.80;56.00;;;;;;7567216;23;20058;-66
2023/02/07 04:35:37;;;;;;;12.90;5.20;;;7.80;55.90;;;;;;7565868;23;20007;-65
2023/02/07 04:38:40;;;;;;;12.02;3.85;;;7.80;56.00;;;;;;7566588;23;20077;-66
2023/02/07 04:41:40;;;;;;;8.77;4.45;;;7.80;56.10;;;;;;7567369;23;20089;-66
2023/02/07 04:44:41;;;;;;;8.45;4.10;;;7.80;56.40;;;;;;7567004;23;20304;-65
2023/02/07 04:47:42;;;;;;;8.98;4.00;;;7.70;56.70;;;;;;7566248;23;20014;-65
2023/02/07 04:50:43;;;;;;;8.57;3.97;;;7.70;57.00;;;;;;7541155;23;20086;-66
2023/02/07 04:53:44;;;;;;;10.32;5.10;;;7.70;57.30;;;;;;7541579;23;20487;-67
2023/02/07 04:56:45;;;;;;;10.02;4.18;;;7.60;57.40;;;;;;7566841;23;20006;-65
2023/02/07 04:59:46;;;;;;;10.65;5.43;;;7.70;57.70;;;;;;7566502;23;20022;-66
2023/02/07 05:02:47;;;;;;;12.93;5.68;;;7.60;57.90;;;;;;7567027;23;20059;-66
2023/02/07 05:05:51;;;;;;;8.25;3.88;;;7.60;58.10;;;;;;7541730;23;20011;-65
2023/02/07 05:08:52;;;;;;;16.15;5.88;;;7.60;58.30;;;;;;7566404;23;20010;-66
2023/02/07 05:11:53;;;;;;;7.32;4.43;;;7.60;58.50;;;;;;7566790;23;20014;-65
2023/02/07 05:14:54;;;;;;;16.88;6.13;;;7.50;58.60;;;;;;7541237;23;20022;-65
2023/02/07 05:17:56;;;;;;;12.48;5.78;;;7.50;58.80;;;;;;7566555;23;20002;-66
2023/02/07 05:20:57;;;;;;;18.70;5.75;;;7.50;58.90;;;;;;7566642;23;20029;-67
2023/02/07 05:23:58;;;;;;;15.68;5.75;;;7.50;59.00;;;;;;7566710;23;20006;-65
2023/02/07 05:26:59;;;;;;;15.55;5.57;;;7.50;59.00;;;;;;7566367;23;20010;-68
2023/02/07 05:30:00;;;;;;;13.80;6.65;;;7.50;59.20;;;;;;7540988;23;20270;-66
2023/02/07 05:33:04;;;;;;;12.73;5.90;;;7.50;59.20;;;;;;7566536;23;20006;-66
2023/02/07 05:36:06;;;;;;;14.10;6.53;;;7.50;59.40;;;;;;7566627;23;20003;-66
2023/02/07 05:39:07;;;;;;;13.18;5.07;;;7.40;59.50;;;;;;7566064;23;20089;-65
2023/02/07 05:42:08;;;;;;;17.10;6.55;;;7.40;59.70;;;;;;7566702;23;20090;-66
2023/02/07 05:45:09;;;;;;;15.90;6.60;;;7.40;59.70;;;;;;7566535;23;20007;-65
2023/02/07 05:48:11;;;;;;;14.80;6.45;;;7.40;59.70;;;;;;7541181;23;20017;-66
2023/02/07 05:51:12;;;;;;;11.88;6.13;;;7.40;59.70;;;;;;7567737;23;20006;-65
2023/02/07 05:54:13;;;;;;;19.90;6.45;;;7.40;59.70;;;;;;7566827;23;20383;-67
2023/02/07 05:57:14;;;;;;;17.80;6.03;;;7.40;59.80;;;;;;7540530;23;20026;-65
2023/02/07 06:00:17;;;;;;;11.60;5.85;;;7.40;59.80;;;;;;7568903;23;20010;-66
2023/02/07 06:03:18;;;;;;;21.00;7.28;;;7.40;59.80;;;;;;7567329;23;20014;-65
2023/02/07 06:06:19;;;;;;;16.35;6.32;;;7.40;59.80;;;;;;7569334;23;20017;-66
2023/02/07 06:09:21;;;;;;;13.30;5.78;;;7.40;59.90;;;;;;7568298;23;20007;-66
2023/02/07 06:12:22;;;;;;;19.88;7.63;;;7.40;59.50;;;;;;7568558;23;20112;-66
2023/02/07 06:15:23;;;;;;;12.60;5.80;;;7.40;60.10;;;;;;7568727;23;20384;-65
2023/02/07 06:18:24;;;;;;;15.32;6.88;;;7.40;60.30;;;;;;7568708;23;20089;-66
2023/02/07 06:21:25;;;;;;;14.02;6.10;;;7.40;60.40;;;;;;7568746;23;20006;-66
2023/02/07 06:24:26;;;;;;;14.82;6.30;;;7.40;60.50;;;;;;7543319;23;20069;-66
2023/02/07 06:27:27;;;;;;;14.40;7.57;;;7.40;60.50;;;;;;7568330;23;20018;-66
2023/02/07 06:30:28;;;;;;;14.80;7.00;;;7.50;60.60;;;;;;7543026;23;20017;-67
2023/02/07 06:33:30;;;;;;;14.13;6.15;;;7.50;60.40;;;;;;7519039;23;20763;-67
2023/02/07 06:36:30;;;;;;;11.40;5.63;;;7.50;60.40;;;;;;7568678;23;20057;-66
2023/02/07 06:39:31;;;;;;;12.75;5.68;;;7.50;60.50;;;;;;7570416;23;20002;-66
2023/02/07 06:42:32;;;;;;;13.60;6.72;;;7.60;60.50;;;;;;7548199;23;20010;-66
2023/02/07 06:45:33;;;;;;;17.48;6.75;;;7.50;60.60;;;;;;7544691;23;20025;-66
2023/02/07 06:48:34;;;;;;;12.68;6.47;;;7.50;60.60;;;;;;7543136;23;20017;-67
2023/02/07 06:51:35;;;;;;;11.75;6.22;;;7.50;60.60;;;;;;7568513;23;20010;-67
2023/02/07 06:54:37;;;;;;;15.73;6.13;;;7.50;60.70;;;;;;7568194;23;20015;-66
2023/02/07 06:57:38;;;;;;;15.10;6.88;;;7.50;60.80;;;;;;7542126;23;20103;-66
2023/02/07 07:00:39;;;;;;;11.68;5.95;;;7.40;61.00;;;;;;7566600;23;20028;-65
2023/02/07 07:03:40;;;;;;;14.32;6.00;;;7.40;61.20;;;;;;7542454;23;20408;-65
2023/02/07 07:06:41;;;;;;;13.52;6.82;;;7.30;61.40;;;;;;7568339;23;20006;-65
2023/02/07 07:09:42;;;;;;;12.57;7.20;;;7.30;61.50;;;;;;7567391;23;20037;-65
2023/02/07 07:12:43;;;;;;;13.88;7.20;;;7.30;61.70;;;;;;7542139;23;20109;-65
2023/02/07 07:15:44;;;;;;;17.48;7.13;;;7.30;61.70;;;;;;7567876;23;20412;-67
2023/02/07 07:18:45;;;;;;;19.23;7.22;;;7.30;61.70;;;;;;7567501;23;20018;-65
2023/02/07 07:21:46;;;;;;;12.43;6.22;;;7.30;61.80;;;;;;7567790;23;20033;-65
2023/02/07 07:24:47;;;;;;;13.52;6.63;;;7.30;61.90;;;;;;7567920;23;20089;-65
2023/02/07 07:27:48;;;;;;;12.75;6.45;;;7.40;62.10;;;;;;7567334;23;20007;-65
2023/02/07 07:30:49;;;;;;;13.48;6.35;;;7.30;62.00;;;;;;7567656;23;20013;-66
2023/02/07 07:33:52;;;;;;;17.88;6.90;;;7.40;62.00;;;;;;7567120;23;20038;-66
2023/02/07 07:36:55;;;;;;;15.52;6.38;;;7.40;62.10;;;;;;7541938;23;20078;-64
2023/02/07 07:39:56;;;;;;;18.13;6.38;;;7.40;61.70;;;;;;7558090;23;20401;-65
2023/02/07 07:42:57;;;;;;;21.73;6.80;;;7.40;61.60;;;;;;7567151;23;20332;-65
2023/02/07 07:46:08;;;;;;;16.02;6.72;;;7.50;61.60;;;;;;7565471;23;20007;-66
2023/02/07 07:49:09;;;;;;;15.57;6.78;;;7.50;61.40;;;;;;7567391;23;20048;-66
2023/02/07 07:52:10;;;;;;;15.95;7.25;;;7.50;61.20;;;;;;7567151;23;20013;-66
2023/02/07 07:55:11;;;;;;;14.70;6.30;;;7.50;61.20;;;;;;7565914;23;20081;-65
2023/02/07 07:58:12;;;;;;;27.50;7.57;;;7.50;61.00;;;;;;7567135;23;20011;-64
2023/02/07 08:01:14;;;;;;;15.82;6.25;;;7.50;61.10;;;;;;7566020;23;20065;-66
2023/02/07 08:04:15;;;;;;;19.50;7.97;;;7.50;60.90;;;;;;7567578;23;20102;-66
2023/02/07 08:07:16;;;;;;;13.00;6.05;;;7.50;60.70;;;;;;7565719;23;20013;-66
2023/02/07 08:10:17;;;;;;;13.13;6.72;;;7.40;60.70;;;;;;7541685;23;20419;-66
2023/02/07 08:13:18;;;;;;;14.10;7.43;;;7.40;60.80;;;;;;7567212;23;20013;-66
2023/02/07 08:16:19;;;;;;;20.13;7.07;;;7.50;61.00;;;;;;7568151;23;20073;-67
2023/02/07 08:19:22;;;;;;;17.65;8.02;;;7.50;60.90;;;;;;7567531;23;20006;-66
2023/02/07 08:22:22;;;;;;;25.55;8.00;;;7.60;60.90;;;;;;7568202;23;20085;-66
2023/02/07 08:25:24;;;;;;;20.13;9.93;;;7.60;60.80;;;;;;7567835;23;20011;-66
2023/02/07 08:28:26;;;;;;;17.85;8.32;;;7.80;60.70;;;;;;7566826;23;20403;-67
2023/02/07 08:31:28;;;;;;;24.90;9.43;;;7.90;60.60;;;;;;7567308;23;20056;-65
2023/02/07 08:34:30;;;;;;;24.52;8.52;;;7.90;60.40;;;;;;7567369;23;20022;-64
2023/02/07 08:37:31;;;;;;;17.67;7.32;;;7.90;61.20;;;;;;7567005;23;20002;-67
2023/02/07 08:40:33;;;;;;;18.88;8.70;;;7.90;60.50;;;;;;7531711;23;20022;-65
2023/02/07 08:43:34;;;;;;;18.50;8.43;;;8.00;59.60;;;;;;7505966;23;20018;-66
2023/02/07 08:46:35;;;;;;;22.35;7.57;;;8.00;60.00;;;;;;7531364;23;20014;-66
2023/02/07 08:49:36;;;;;;;18.75;8.70;;;7.90;60.00;;;;;;7530989;23;20011;-65
2023/02/07 08:52:37;;;;;;;20.45;9.68;;;8.00;60.20;;;;;;7531137;23;20014;-67
2023/02/07 08:55:42;;;;;;;26.52;9.63;;;8.00;60.40;;;;;;7531517;23;20453;-68
2023/02/07 08:58:44;;;;;;;18.48;8.10;;;8.10;60.30;;;;;;7505560;23;20028;-67
2023/02/07 09:01:45;;;;;;;23.38;10.15;;;8.30;60.10;;;;;;7531003;23;20007;-69
2023/02/07 09:04:46;;;;;;;22.55;9.70;;;8.40;59.70;;;;;;7505792;23;20062;-67
2023/02/07 09:07:47;;;;;;;18.30;9.05;;;8.50;59.40;;;;;;7505624;23;20010;-67
2023/02/07 09:10:48;;;;;;;24.95;9.95;;;8.50;59.20;;;;;;7530880;23;20030;-66
2023/02/07 09:13:49;;;;;;;25.25;10.38;;;8.50;58.90;;;;;;7530449;23;20394;-66
2023/02/07 09:16:50;;;;;;;21.38;10.63;;;8.60;58.90;;;;;;7505215;23;20011;-67
2023/02/07 09:19:51;;;;;;;18.38;9.50;;;8.70;58.90;;;;;;7505307;23;20007;-67
2023/02/07 09:26:21;;;;;;;21.70;9.20;;;8.80;58.40;;;;;;7505059;23;20019;-68
2023/02/07 09:29:22;;;;;;;17.20;7.50;;;8.80;58.20;;;;;;7530034;23;20018;-67
2023/02/07 09:32:23;;;;;;;22.52;8.23;;;8.80;58.20;;;;;;7530675;23;20021;-66
2023/02/07 09:35:24;;;;;;;20.92;8.57;;;8.90;58.10;;;;;;7530259;23;20003;-68
2023/02/07 09:38:25;;;;;;;20.25;9.15;;;8.90;57.90;;;;;;7540777;23;20328;-67
2023/02/07 09:41:29;;;;;;;17.30;8.88;;;8.60;57.70;;;;;;7567205;23;20002;-68
2023/02/07 09:44:59;;;;;;;16.40;8.23;;;8.80;57.90;;;;;;7542665;23;20007;-66
2023/02/07 09:48:11;;;;;;;18.65;9.50;;;8.80;57.80;;;;;;7566866;23;20077;-66
2023/02/07 09:51:12;;;;;;;18.48;9.25;;;8.80;57.60;;;;;;7540791;23;20081;-67
2023/02/07 09:54:20;;;;;;;24.50;9.60;;;8.80;57.70;;;;;;7540629;23;20085;-67
2023/02/07 09:57:27;;;;;;;19.42;9.88;;;8.80;57.80;;;;;;7565938;23;20433;-67
2023/02/07 10:00:37;;;;;;;27.23;10.10;;;8.90;57.80;;;;;;7566064;23;20003;-67
2023/02/07 10:03:49;;;;;;;24.95;10.35;;;9.00;57.50;;;;;;7565774;23;20086;-68
2023/02/07 10:06:56;;;;;;;19.73;8.75;;;9.10;57.40;;;;;;7540578;23;20021;-67
2023/02/07 10:09:57;;;;;;;19.83;7.13;;;9.10;57.40;;;;;;7540247;23;20048;-68
2023/02/07 10:12:58;;;;;;;21.63;9.30;;;9.20;57.20;;;;;;7565971;23;20017;-67
2023/02/07 10:16:23;;;;;;;21.65;10.15;;;9.20;57.10;;;;;;7566292;23;20003;-67
2023/02/07 10:19:50;;;;;;;19.50;9.32;;;9.10;57.00;;;;;;7540473;23;20003;-67
2023/02/07 10:23:06;;;;;;;20.83;9.35;;;9.20;57.40;;;;;;7566064;23;20520;-66
2023/02/07 10:26:13;;;;;;;22.30;8.73;;;9.30;57.30;;;;;;7566218;23;20309;-67
2023/02/07 10:29:49;;;;;;;23.77;10.35;;;9.60;56.80;;;;;;7565405;23;20010;-68
2023/02/07 10:32:50;;;;;;;19.23;8.38;;;9.80;56.20;;;;;;7565666;23;20034;-67
2023/02/07 10:35:52;;;;;;;23.55;9.75;;;10.10;55.90;;;;;;7565973;23;20432;-66
2023/02/07 10:39:05;;;;;;;20.48;8.50;;;10.20;55.50;;;;;;7564799;23;20090;-66
2023/02/07 10:42:13;;;;;;;18.73;8.85;;;10.40;55.10;;;;;;7565590;23;20327;-67
2023/02/07 10:45:15;;;;;;;21.17;9.35;;;10.60;54.80;;;;;;7541191;23;20052;-67
2023/02/07 10:48:18;;;;;;;19.10;9.15;;;10.70;54.50;;;;;;7545788;23;20006;-67
2023/02/07 10:51:25;;;;;;;25.85;10.93;;;10.90;54.30;;;;;;7571123;23;20029;-67
2023/02/07 10:54:26;;;;;;;19.02;7.93;;;11.10;54.20;;;;;;7543468;23;20014;-68
2023/02/07 10:57:28;;;;;;;21.48;8.65;;;11.30;53.80;;;;;;7567921;23;20083;-67
2023/02/07 11:00:32;;;;;;;16.55;7.03;;;11.60;53.10;;;;;;7542293;23;20010;-68
2023/02/07 11:03:35;;;;;;;16.40;6.90;;;11.70;52.10;;;;;;7567999;23;20030;-66
2023/02/07 11:06:36;;;;;;;16.77;7.43;;;11.90;50.90;;;;;;7542040;23;20443;-66
2023/02/07 11:09:37;;;;;;;17.73;7.43;;;12.00;50.90;;;;;;7541328;23;20097;-65
2023/02/07 11:12:45;;;;;;;19.58;8.38;;;12.20;50.70;;;;;;7567491;23;20042;-68
2023/02/07 11:16:09;;;;;;;13.77;6.55;;;12.40;49.90;;;;;;7541934;23;20053;-69
2023/02/07 11:19:19;;;;;;;11.25;6.35;;;12.80;49.10;;;;;;7567331;23;20007;-67
2023/02/07 11:22:23;;;;;;;14.98;6.95;;;13.10;48.30;;;;;;7567401;23;20010;-66
2023/02/07 11:25:46;;;;;;;17.42;7.68;;;13.50;47.60;;;;;;7566913;23;20002;-68
2023/02/07 11:29:02;;;;;;;27.40;7.70;;;13.90;46.70;;;;;;7541759;23;20051;-69
2023/02/07 11:32:04;;;;;;;16.85;6.75;;;14.30;45.30;;;;;;7567301;23;20134;-67
2023/02/07 11:35:08;;;;;;;13.18;6.85;;;14.70;44.40;;;;;;7567269;23;20069;-67
2023/02/07 11:38:13;;;;;;;14.90;7.40;;;15.20;43.90;;;;;;7566859;23;20384;-66
2023/02/07 11:41:17;;;;;;;15.85;8.35;;;15.70;41.60;;;;;;7567484;23;20007;-66
2023/02/07 11:44:22;;;;;;;12.18;6.13;;;16.10;40.80;;;;;;7541556;23;20432;-67
2023/02/07 11:47:29;;;;;;;15.52;7.13;;;16.50;39.40;;;;;;7566695;23;20090;-66
2023/02/07 11:50:37;;;;;;;18.43;8.47;;;16.80;38.20;;;;;;7566774;23;20340;-68
2023/02/07 11:53:44;;;;;;;16.73;6.90;;;17.10;37.40;;;;;;7567172;23;20255;-66
2023/02/07 11:56:54;;;;;;;18.58;7.00;;;17.50;36.10;;;;;;7567443;23;20002;-67
2023/02/07 12:00:21;;;;;;;13.45;6.05;;;18.00;33.90;;;;;;7567042;23;20308;-69
2023/02/07 12:03:23;;;;;;;13.15;4.93;;;17.90;34.60;;;;;;7541863;23;20022;-67
2023/02/07 12:06:47;;;;;;;10.35;4.60;;;18.20;33.10;;;;;;7567429;23;20044;-67
2023/02/07 12:09:52;;;;;;;7.00;4.57;;;18.50;31.60;;;;;;7566483;23;20017;-68
2023/02/07 12:13:02;;;;;;;11.07;5.18;;;18.70;30.00;;;;;;7567121;23;20010;-67
2023/02/07 12:16:27;;;;;;;11.38;5.65;;;18.80;29.60;;;;;;7541649;23;20014;-69
2023/02/07 12:19:34;;;;;;;9.85;5.53;;;18.90;29.70;;;;;;7566731;23;20030;-67
2023/02/07 12:22:55;;;;;;;7.25;4.57;;;18.60;30.10;;;;;;7566735;23;20634;-67
2023/02/07 12:26:06;;;;;;;13.40;4.80;;;17.90;31.00;;;;;;7566716;23;20037;-67
2023/02/07 12:29:30;;;;;;;8.30;4.45;;;17.30;31.60;;;;;;7566492;23;20081;-67
2023/02/07 12:32:41;;;;;;;7.82;4.55;;;16.80;31.70;;;;;;7566449;23;20479;-67
2023/02/07 12:36:05;;;;;;;9.38;4.10;;;16.30;32.00;;;;;;7566916;23;20032;-67
2023/02/07 12:39:35;;;;;;;9.25;5.07;;;15.90;32.40;;;;;;7551217;23;20010;-66
2023/02/07 12:42:39;;;;;;;12.95;5.35;;;15.50;33.20;;;;;;7567350;23;20018;-68
2023/02/07 12:45:46;;;;;;;9.10;4.75;;;15.20;33.90;;;;;;7540978;23;20025;-67
2023/02/07 12:49:18;;;;;;;11.10;5.15;;;15.00;33.80;;;;;;7566510;23;20348;-68
2023/02/07 12:52:19;;;;;;;10.35;4.70;;;14.90;34.70;;;;;;7566561;23;20424;-67
2023/02/07 12:55:29;;;;;;;7.55;3.70;;;14.90;35.00;;;;;;7566549;23;20030;-68
2023/02/07 12:58:35;;;;;;;9.82;3.60;;;14.80;34.70;;;;;;7564556;23;20006;-67
2023/02/07 13:02:11;;;;;;;7.07;3.70;;;14.70;34.60;;;;;;7566949;23;20081;-67
2023/02/07 13:05:39;;;;;;;6.25;2.67;;;14.50;34.10;;;;;;7456605;23;20007;-67
2023/02/07 13:08:49;;;;;;;6.32;3.10;;;14.40;34.20;;;;;;7455966;23;20497;-67
2023/02/07 13:11:58;;;;;;;9.13;3.60;;;14.30;34.30;;;;;;7457067;23;20090;-67
2023/02/07 13:15:19;;;;;;;7.22;3.17;;;14.20;34.30;;;;;;7456558;23;20024;-68
2023/02/07 13:18:23;;;;;;;4.38;2.67;;;14.10;34.10;;;;;;7456770;23;20060;-66
2023/02/07 13:22:05;;;;;;;11.18;3.00;;;14.00;34.30;;;;;;7457389;23;20012;-68
2023/02/07 13:25:15;;;;;;;5.85;2.67;;;14.00;34.30;;;;;;7319341;24;20025;-67
2023/02/07 13:28:42;;;;;;;10.95;3.60;;;14.00;33.90;;;;;;7320033;24;20032;-65
2023/02/07 13:31:55;;;;;;;5.25;2.15;;;13.90;33.30;;;;;;7310618;24;20044;-66
2023/02/07 13:35:11;;;;;;;1.60;1.00;;;13.90;33.00;;;;;;7319941;24;20047;-68
2023/02/07 13:38:36;;;;;;;2.42;1.27;;;13.90;32.40;;;;;;7296107;24;20041;-66
2023/02/07 13:42:05;;;;;;;2.47;1.55;;;13.90;30.60;;;;;;7369962;23;20012;-69
2023/02/07 13:45:34;;;;;;;4.07;1.65;;;13.90;30.10;;;;;;7432399;23;20011;-68
2023/02/07 13:48:53;;;;;;;3.90;1.65;;;14.00;30.10;;;;;;7408078;23;20094;-68
2023/02/07 13:52:23;;;;;;;3.92;1.60;;;14.00;29.90;;;;;;7455316;23;20016;-68
2023/02/07 13:55:30;;;;;;;3.78;1.30;;;14.00;29.50;;;;;;7447494;23;20460;-66
2023/02/07 14:01:57;;;;;;;3.30;1.65;;;13.90;28.60;;;;;;7565643;23;20014;-67
2023/02/07 14:05:11;;;;;;;9.15;3.17;;;13.90;28.50;;;;;;7565918;23;20106;-66
2023/02/07 14:08:15;;;;;;;11.07;3.67;;;13.90;29.00;;;;;;7563910;23;20350;-67
2023/02/07 14:11:28;;;;;;;9.73;4.22;;;13.90;30.40;;;;;;7565965;23;20006;-66
2023/02/07 14:14:37;;;;;;;6.43;3.03;;;13.80;32.10;;;;;;7566123;23;20130;-66
2023/02/07 14:17:38;;;;;;;11.90;3.88;;;13.80;32.70;;;;;;7564062;23;20427;-66
2023/02/07 14:20:41;;;;;;;8.80;3.95;;;13.70;33.10;;;;;;7565715;23;20011;-67
2023/02/07 14:24:02;;;;;;;16.13;4.20;;;13.70;33.80;;;;;;7568200;23;20474;-68
2023/02/07 14:27:24;;;;;;;24.48;3.90;;;13.70;34.40;;;;;;7568576;23;20014;-67
2023/02/07 14:30:52;;;;;;;12.23;3.80;;;13.70;34.80;;;;;;7568280;23;20014;-67
2023/02/07 14:34:12;;;;;;;8.35;3.97;;;13.60;34.70;;;;;;7568373;23;20006;-68
2023/02/07 14:37:35;;;;;;;12.70;3.80;;;13.50;34.80;;;;;;7566718;23;20128;-67
2023/02/07 14:40:42;;;;;;;10.02;4.15;;;13.50;35.10;;;;;;7566629;23;20470;-67
2023/02/07 14:43:48;;;;;;;8.95;4.07;;;13.40;35.40;;;;;;7566485;23;20065;-68
2023/02/07 14:46:54;;;;;;;6.63;3.50;;;13.30;35.60;;;;;;7566630;23;20463;-68
2023/02/07 14:49:58;;;;;;;6.20;3.05;;;13.30;35.50;;;;;;7567858;23;20491;-69
2023/02/07 14:53:03;;;;;;;7.85;3.28;;;13.30;35.10;;;;;;7568445;23;20013;-66
2023/02/07 14:56:06;;;;;;;6.03;3.35;;;13.30;34.80;;;;;;7568413;23;20006;-67
2023/02/07 14:59:12;;;;;;;8.43;3.47;;;13.30;34.70;;;;;;7566334;23;20009;-68
2023/02/07 15:02:38;;;;;;;19.05;4.22;;;13.30;34.90;;;;;;7568395;23;20038;-69
2023/02/07 15:05:52;;;;;;;5.60;3.15;;;13.20;35.10;;;;;;7566306;23;20010;-67
2023/02/07 15:08:59;;;;;;;7.30;3.55;;;13.20;35.30;;;;;;7567568;23;20034;-67
2023/02/07 15:12:08;;;;;;;9.18;3.92;;;13.20;35.60;;;;;;7568462;23;20009;-67
2023/02/07 15:15:22;;;;;;;5.05;3.45;;;13.10;35.80;;;;;;7567695;23;20073;-69
2023/02/07 15:18:27;;;;;;;9.63;3.70;;;13.10;36.10;;;;;;7567621;23;20022;-68
2023/02/07 15:21:41;;;;;;;12.48;4.50;;;13.10;36.30;;;;;;7567612;23;20340;-68
2023/02/07 15:24:43;;;;;;;14.35;4.97;;;13.00;36.40;;;;;;7565852;23;20012;-68
2023/02/07 15:27:59;;;;;;;6.65;4.07;;;13.00;36.50;;;;;;7567581;23;20006;-67
2023/02/07 15:31:05;;;;;;;10.02;4.05;;;13.00;36.50;;;;;;7566113;23;20062;-67
2023/02/07 15:34:14;;;;;;;10.73;3.83;;;13.00;36.60;;;;;;7566797;23;20019;-68
2023/02/07 15:37:19;;;;;;;8.35;3.83;;;13.00;36.60;;;;;;7570626;23;20084;-67
2023/02/07 15:40:23;;;;;;;10.20;4.75;;;13.00;36.70;;;;;;7568539;23;20006;-66
2023/02/07 15:43:28;;;;;;;8.75;4.47;;;13.00;36.80;;;;;;7517946;23;20021;-65
2023/02/07 15:46:50;;;;;;;7.80;3.85;;;12.90;37.00;;;;;;7541577;23;20046;-67
2023/02/07 15:50:01;;;;;;;6.78;3.60;;;12.90;37.20;;;;;;7541587;23;20033;-66
2023/02/07 15:53:07;;;;;;;13.90;3.83;;;12.80;37.30;;;;;;7541565;23;20380;-67
2023/02/07 15:56:08;;;;;;;9.73;4.47;;;12.80;37.30;;;;;;7567036;23;20006;-66
2023/02/07 15:59:15;;;;;;;8.15;4.40;;;12.70;37.30;;;;;;7566570;23;20090;-68
2023/02/07 16:02:30;;;;;;;10.77;4.47;;;12.60;37.40;;;;;;7517239;23;20309;-68
2023/02/07 16:05:36;;;;;;;9.73;3.47;;;12.60;37.50;;;;;;7566968;23;20098;-67
2023/02/07 16:08:40;;;;;;;9.23;4.50;;;12.50;37.60;;;;;;7540944;23;20034;-67
2023/02/07 16:11:41;;;;;;;8.88;4.70;;;12.50;37.80;;;;;;7566727;23;20078;-67
2023/02/07 16:14:42;;;;;;;12.32;5.00;;;12.50;37.90;;;;;;7541618;23;20041;-66